In Rescue
 
Open Full Screen Window  High Contrast Mode
November 19, 2019 12:56 PM EST
Present Weather: Mist
Weather Information
Wind Direction
  ---
Wind Speed
  00 kt (0 mph)
Wind Gust
  00 kt (0 mph)
Altimeter
29.80 in
Visibility
2 SM
Temperature
03° C
37° F
Dewpoint
01° C
34° F
Humidity
87%
Sky Condition
Overcast @ 4,700 ft
IFR

METAR KHYX 191756Z AUTO 00000KT 2SM BR OVC047 03/01 A2980 RMK AO2

FAA Disclaimer: The data displayed is for advisory purposes only and is not to be used for flight planning or operations.